Desterrado — CUCD7 — position and weather

sailwx.info

Track history (hours):
 
Tides and Currents Weather Stations Pressure Air Temp Water Temp Dewpoint Dewpoint Depression Visibility Wind Speed Wind Dir Waves Ship Positions

Desterrado

Last reported at 2018-Jun-20 17:30 UTC. Time now 2018-Jun-20 17:29 UTC.
Position N 38°32' W 009°45'.

Length 18 m.

Type: Fishing. MMSI: 263341000.

Date/timePositionNaut miles runAvg speedWind from/ knotsBaromVisibWave heightAir tempDewpointWater temp
2018-Jun-20 17:30N 38°32' W 009°45'1 1.0
2018-Jun-20 17:00N 38°32' W 009°45'1 1.3
2018-Jun-20 16:28N 38°31' W 009°46'1 1.5
2018-Jun-20 15:59N 38°31' W 009°46'1 1.3
2018-Jun-20 15:30N 38°30' W 009°47'1 1.2
2018-Jun-20 15:00N 38°30' W 009°47'1 1.1
2018-Jun-20 14:30N 38°29' W 009°48'1 1.1
2018-Jun-20 14:00N 38°29' W 009°48'0 0.8
2018-Jun-20 13:31N 38°28' W 009°48'0 0.4
2018-Jun-20 13:00N 38°28' W 009°48'2 4.7
2018-Jun-20 12:30N 38°28' W 009°46'5 9.4
2018-Jun-20 12:00N 38°27' W 009°39'5 9.2
2018-Jun-20 11:30N 38°27' W 009°34'5 9.2
2018-Jun-20 11:00N 38°26' W 009°28'5 9.1
2018-Jun-20 10:30N 38°25' W 009°22'5 9.5
2018-Jun-20 10:01N 38°25' W 009°16'5 9.3
2018-Jun-20 09:27N 38°25' W 009°10'3 6.0
2018-Jun-20 09:01N 38°26' W 009°07'0 0.0
2018-Jun-19 10:28N 38°26' W 009°07'0 0.3
2018-Jun-19 10:00N 38°26' W 009°07'0 0.1
2018-Jun-19 09:29N 38°26' W 009°07'3 7.0
2018-Jun-19 09:00N 38°25' W 009°10'4 8.9
2018-Jun-19 08:30N 38°25' W 009°16'5 8.9
2018-Jun-19 07:54N 38°25' W 009°23'4 8.8
2018-Jun-19 07:26N 38°25' W 009°28'7 8.9
2018-Jun-19 06:42N 38°26' W 009°36'2 9.0
2018-Jun-19 06:30N 38°26' W 009°39'1 2.6
2018-Jun-19 06:00N 38°26' W 009°40'2 4.0
2018-Jun-19 05:30N 38°28' W 009°38'1 2.3
2018-Jun-19 04:57N 38°27' W 009°39'0 0.2
2018-Jun-19 04:30N 38°27' W 009°39'0 0.5
2018-Jun-19 03:56N 38°26' W 009°40'0 0.4
2018-Jun-19 03:30N 38°26' W 009°40'0 0.6
2018-Jun-19 03:00N 38°26' W 009°40'0 0.6
2018-Jun-19 02:30N 38°26' W 009°40'0 0.6
2018-Jun-19 02:00N 38°26' W 009°41'0 0.5
2018-Jun-19 01:30N 38°25' W 009°41'0 0.4
2018-Jun-19 01:00N 38°25' W 009°40'0 0.3
2018-Jun-19 00:25N 38°25' W 009°40'0 0.1
2018-Jun-19 00:00N 38°25' W 009°40'0 0.6
2018-Jun-18 23:30N 38°25' W 009°41'4 7.9
2018-Jun-18 23:00N 38°27' W 009°45'3 5.2
2018-Jun-18 22:28N 38°29' W 009°47'3 6.6
2018-Jun-18 22:00N 38°32' W 009°45'3 5.9
2018-Jun-18 21:30N 38°35' W 009°44'3 5.1
2018-Jun-18 21:00N 38°32' W 009°44'1 1.9
2018-Jun-18 20:30N 38°31' W 009°44'0 0.1
2018-Jun-18 20:00N 38°31' W 009°44'0 0.7
2018-Jun-18 19:30N 38°31' W 009°44'0 0.8
2018-Jun-18 19:00N 38°31' W 009°45'0 0.8
2018-Jun-18 18:30N 38°30' W 009°45'0 0.9
2018-Jun-18 18:00N 38°30' W 009°46'1 1.0
2018-Jun-18 17:30N 38°30' W 009°46'1 1.0
2018-Jun-18 17:00N 38°29' W 009°47'0 0.9
2018-Jun-18 16:30N 38°29' W 009°47'1 1.1
2018-Jun-18 16:00N 38°29' W 009°48'1 1.1
2018-Jun-18 15:30N 38°28' W 009°48'0 0.9
2018-Jun-18 15:00N 38°28' W 009°48'1 2.6
2018-Jun-18 14:30N 38°28' W 009°47'1 1.9
2018-Jun-18 14:00N 38°28' W 009°46'5 9.0
2018-Jun-18 13:27N 38°28' W 009°39'5 9.4
2018-Jun-18 12:58N 38°27' W 009°33'4 9.5
2018-Jun-18 12:30N 38°26' W 009°28'5 9.5
2018-Jun-18 12:00N 38°26' W 009°22'4 8.1
2018-Jun-18 11:30N 38°25' W 009°17'4 7.6
2018-Jun-18 11:00N 38°24' W 009°12'5 9.2
2018-Jun-18 10:30N 38°26' W 009°07'0 0.8
2018-Jun-18 10:00N 38°26' W 009°07'0 0.0
2018-Jun-18 09:30N 38°26' W 009°07'0 0.0
2018-Jun-18 09:00N 38°26' W 009°07'0 0.0
2018-Jun-18 08:30N 38°26' W 009°07'0 0.1
2018-Jun-18 08:00N 38°26' W 009°07'0 0.0
2018-Jun-16 07:57N 38°26' W 009°07'0 0.0
2018-Jun-16 07:30N 38°26' W 009°07'0 0.0
2018-Jun-16 06:59N 38°26' W 009°07'0 0.0
2018-Jun-15 10:19N 38°26' W 009°07'0 0.0
2018-Jun-14 08:27N 38°26' W 009°07'0 0.0
2018-Jun-14 08:00N 38°26' W 009°07'0 0.0
2018-Jun-14 07:08N 38°26' W 009°07'0 0.0
2018-Jun-14 06:56N 38°26' W 009°07'1 1.8
2018-Jun-14 06:29N 38°26' W 009°07'5 9.4
2018-Jun-14 05:58N 38°24' W 009°13'4 9.4
2018-Jun-14 05:31N 38°25' W 009°19'5 9.8
2018-Jun-14 05:00N 38°26' W 009°25'6 9.9
2018-Jun-14 04:21N 38°27' W 009°33'5 4.1
2018-Jun-14 03:03N 38°26' W 009°40'0 4.8
2018-Jun-14 02:57N 38°26' W 009°39'0 0.8
2018-Jun-14 02:28N 38°26' W 009°39'0 0.4
2018-Jun-14 02:00N 38°26' W 009°39'0 0.6
2018-Jun-14 01:26N 38°26' W 009°39'1 0.4
2018-Jun-13 22:44N 38°25' W 009°40'0 0.5
2018-Jun-13 22:25N 38°25' W 009°40'0 0.5
2018-Jun-13 21:53N 38°24' W 009°40'8 4.2
2018-Jun-13 19:53N 38°32' W 009°45'2 6.3
2018-Jun-13 19:30N 38°34' W 009°44'1 2.6
2018-Jun-13 19:00N 38°32' W 009°44'1 1.1
2018-Jun-13 18:30N 38°32' W 009°44'0 0.3
2018-Jun-13 18:00N 38°32' W 009°44'0 0.6
2018-Jun-13 17:29N 38°32' W 009°45'0 0.9
2018-Jun-13 17:00N 38°31' W 009°45'1 1.0
2018-Jun-13 16:27N 38°31' W 009°46'1 1.1
2018-Jun-13 15:56N 38°31' W 009°46'1 1.1
2018-Jun-13 15:27N 38°30' W 009°46'1 1.0
2018-Jun-13 14:52N 38°30' W 009°47'1 0.5
2018-Jun-13 13:44N 38°29' W 009°47'0 0.5
2018-Jun-13 13:29N 38°29' W 009°47'0 1.0
2018-Jun-13 12:58N 38°29' W 009°46'6 7.2
2018-Jun-13 12:10N 38°27' W 009°39'1 7.3
2018-Jun-13 12:00N 38°27' W 009°37'4 7.3
2018-Jun-13 11:30N 38°27' W 009°33'4 7.9
2018-Jun-13 11:00N 38°26' W 009°28'4 8.1
2018-Jun-13 10:28N 38°25' W 009°22'4 8.9
2018-Jun-13 10:00N 38°25' W 009°17'5 8.7
2018-Jun-13 09:23N 38°25' W 009°10'3 9.1
2018-Jun-13 09:01N 38°26' W 009°06'0 0.6
2018-Jun-13 08:30N 38°26' W 009°07'0 0.0
2018-Jun-12 07:13N 38°26' W 009°07'0 0.0
2018-Jun-12 07:00N 38°26' W 009°07'0 0.3
2018-Jun-12 06:30N 38°26' W 009°06'5 8.8
2018-Jun-12 05:57N 38°24' W 009°12'4 9.2
2018-Jun-12 05:30N 38°24' W 009°18'5 9.4
2018-Jun-12 04:58N 38°25' W 009°24'4 9.3
2018-Jun-12 04:30N 38°25' W 009°29'7 4.4
2018-Jun-12 02:48N 38°27' W 009°38'1 2.7
2018-Jun-12 02:22N 38°26' W 009°38'0 0.7
2018-Jun-12 01:58N 38°26' W 009°38'0 0.5
2018-Jun-12 01:29N 38°26' W 009°38'0 0.8
2018-Jun-12 01:00N 38°26' W 009°38'0 0.9
2018-Jun-12 00:29N 38°26' W 009°39'0 0.9
2018-Jun-11 23:59N 38°26' W 009°39'0 0.9
2018-Jun-11 23:30N 38°25' W 009°40'1 0.4
2018-Jun-11 22:19N 38°25' W 009°40'0 0.4
2018-Jun-11 21:59N 38°25' W 009°39'8 3.9
2018-Jun-11 19:57N 38°31' W 009°46'3 5.8
2018-Jun-11 19:25N 38°34' W 009°44'2 3.9
2018-Jun-11 18:59N 38°32' W 009°44'0 0.2
2018-Jun-11 18:30N 38°32' W 009°44'0 0.5
2018-Jun-11 17:59N 38°32' W 009°44'0 0.8
2018-Jun-11 17:30N 38°32' W 009°44'0 1.0
2018-Jun-11 17:00N 38°31' W 009°45'1 1.1
2018-Jun-11 16:26N 38°31' W 009°45'0 1.1
2018-Jun-11 16:00N 38°30' W 009°45'1 1.1
2018-Jun-11 15:26N 38°30' W 009°46'0 1.0
2018-Jun-11 15:00N 38°30' W 009°46'0 0.6
2018-Jun-11 14:24N 38°29' W 009°46'0 0.2
2018-Jun-11 13:56N 38°29' W 009°46'0 0.6
2018-Jun-11 13:27N 38°29' W 009°46'4 7.7
2018-Jun-11 12:58N 38°27' W 009°42'4 8.6
2018-Jun-11 12:29N 38°27' W 009°36'4 8.5
2018-Jun-11 12:00N 38°26' W 009°31'5 8.7
2018-Jun-11 11:28N 38°26' W 009°25'4 8.7
2018-Jun-11 11:00N 38°25' W 009°20'5 8.8
2018-Jun-11 10:29N 38°24' W 009°14'5 8.8
2018-Jun-11 09:56N 38°25' W 009°08'2 4.0
2018-Jun-11 09:30N 38°26' W 009°07'0 0.0
2018-Jun-11 09:00N 38°26' W 009°07'  
Track history (hours):
 
Tides and Currents Weather Stations Pressure Air Temp Water Temp Dewpoint Dewpoint Depression Visibility Wind Speed Wind Dir Waves Ship Positions

Desterrado

Last reported at 2018-Jun-20 17:30 UTC. Time now 2018-Jun-20 17:29 UTC.
Position N 38°32' W 009°45'.

Length 18 m.

Type: Fishing. MMSI: 263341000.

Date/timePositionNaut miles runAvg speedWind from/ knotsBaromVisibWave heightAir tempDewpointWater temp
2018-Jun-20 17:30N 38°32' W 009°45'1 1.0
2018-Jun-20 17:00N 38°32' W 009°45'1 1.3
2018-Jun-20 16:28N 38°31' W 009°46'1 1.5
2018-Jun-20 15:59N 38°31' W 009°46'1 1.3
2018-Jun-20 15:30N 38°30' W 009°47'1 1.2
2018-Jun-20 15:00N 38°30' W 009°47'1 1.1
2018-Jun-20 14:30N 38°29' W 009°48'1 1.1
2018-Jun-20 14:00N 38°29' W 009°48'0 0.8
2018-Jun-20 13:31N 38°28' W 009°48'0 0.4
2018-Jun-20 13:00N 38°28' W 009°48'2 4.7
2018-Jun-20 12:30N 38°28' W 009°46'5 9.4
2018-Jun-20 12:00N 38°27' W 009°39'5 9.2
2018-Jun-20 11:30N 38°27' W 009°34'5 9.2
2018-Jun-20 11:00N 38°26' W 009°28'5 9.1
2018-Jun-20 10:30N 38°25' W 009°22'5 9.5
2018-Jun-20 10:01N 38°25' W 009°16'5 9.3
2018-Jun-20 09:27N 38°25' W 009°10'3 6.0
2018-Jun-20 09:01N 38°26' W 009°07'0 0.0
2018-Jun-19 10:28N 38°26' W 009°07'0 0.3
2018-Jun-19 10:00N 38°26' W 009°07'0 0.1
2018-Jun-19 09:29N 38°26' W 009°07'3 7.0
2018-Jun-19 09:00N 38°25' W 009°10'4 8.9
2018-Jun-19 08:30N 38°25' W 009°16'5 8.9
2018-Jun-19 07:54N 38°25' W 009°23'4 8.8
2018-Jun-19 07:26N 38°25' W 009°28'7 8.9
2018-Jun-19 06:42N 38°26' W 009°36'2 9.0
2018-Jun-19 06:30N 38°26' W 009°39'1 2.6
2018-Jun-19 06:00N 38°26' W 009°40'2 4.0
2018-Jun-19 05:30N 38°28' W 009°38'1 2.3
2018-Jun-19 04:57N 38°27' W 009°39'0 0.2
2018-Jun-19 04:30N 38°27' W 009°39'0 0.5
2018-Jun-19 03:56N 38°26' W 009°40'0 0.4
2018-Jun-19 03:30N 38°26' W 009°40'0 0.6
2018-Jun-19 03:00N 38°26' W 009°40'0 0.6
2018-Jun-19 02:30N 38°26' W 009°40'0 0.6
2018-Jun-19 02:00N 38°26' W 009°41'0 0.5
2018-Jun-19 01:30N 38°25' W 009°41'0 0.4
2018-Jun-19 01:00N 38°25' W 009°40'0 0.3
2018-Jun-19 00:25N 38°25' W 009°40'0 0.1
2018-Jun-19 00:00N 38°25' W 009°40'0 0.6
2018-Jun-18 23:30N 38°25' W 009°41'4 7.9
2018-Jun-18 23:00N 38°27' W 009°45'3 5.2
2018-Jun-18 22:28N 38°29' W 009°47'3 6.6
2018-Jun-18 22:00N 38°32' W 009°45'3 5.9
2018-Jun-18 21:30N 38°35' W 009°44'3 5.1
2018-Jun-18 21:00N 38°32' W 009°44'1 1.9
2018-Jun-18 20:30N 38°31' W 009°44'0 0.1
2018-Jun-18 20:00N 38°31' W 009°44'0 0.7
2018-Jun-18 19:30N 38°31' W 009°44'0 0.8
2018-Jun-18 19:00N 38°31' W 009°45'0 0.8
2018-Jun-18 18:30N 38°30' W 009°45'0 0.9
2018-Jun-18 18:00N 38°30' W 009°46'1 1.0
2018-Jun-18 17:30N 38°30' W 009°46'1 1.0
2018-Jun-18 17:00N 38°29' W 009°47'0 0.9
2018-Jun-18 16:30N 38°29' W 009°47'1 1.1
2018-Jun-18 16:00N 38°29' W 009°48'1 1.1
2018-Jun-18 15:30N 38°28' W 009°48'0 0.9
2018-Jun-18 15:00N 38°28' W 009°48'1 2.6
2018-Jun-18 14:30N 38°28' W 009°47'1 1.9
2018-Jun-18 14:00N 38°28' W 009°46'5 9.0
2018-Jun-18 13:27N 38°28' W 009°39'5 9.4
2018-Jun-18 12:58N 38°27' W 009°33'4 9.5
2018-Jun-18 12:30N 38°26' W 009°28'5 9.5
2018-Jun-18 12:00N 38°26' W 009°22'4 8.1
2018-Jun-18 11:30N 38°25' W 009°17'4 7.6
2018-Jun-18 11:00N 38°24' W 009°12'5 9.2
2018-Jun-18 10:30N 38°26' W 009°07'0 0.8
2018-Jun-18 10:00N 38°26' W 009°07'0 0.0
2018-Jun-18 09:30N 38°26' W 009°07'0 0.0
2018-Jun-18 09:00N 38°26' W 009°07'0 0.0
2018-Jun-18 08:30N 38°26' W 009°07'0 0.1
2018-Jun-18 08:00N 38°26' W 009°07'0 0.0
2018-Jun-16 07:57N 38°26' W 009°07'0 0.0
2018-Jun-16 07:30N 38°26' W 009°07'0 0.0
2018-Jun-16 06:59N 38°26' W 009°07'0 0.0
2018-Jun-15 10:19N 38°26' W 009°07'0 0.0
2018-Jun-14 08:27N 38°26' W 009°07'0 0.0
2018-Jun-14 08:00N 38°26' W 009°07'0 0.0
2018-Jun-14 07:08N 38°26' W 009°07'0 0.0
2018-Jun-14 06:56N 38°26' W 009°07'1 1.8
2018-Jun-14 06:29N 38°26' W 009°07'5 9.4
2018-Jun-14 05:58N 38°24' W 009°13'4 9.4
2018-Jun-14 05:31N 38°25' W 009°19'5 9.8
2018-Jun-14 05:00N 38°26' W 009°25'6 9.9
2018-Jun-14 04:21N 38°27' W 009°33'5 4.1
2018-Jun-14 03:03N 38°26' W 009°40'0 4.8
2018-Jun-14 02:57N 38°26' W 009°39'0 0.8
2018-Jun-14 02:28N 38°26' W 009°39'0 0.4
2018-Jun-14 02:00N 38°26' W 009°39'0 0.6
2018-Jun-14 01:26N 38°26' W 009°39'1 0.4
2018-Jun-13 22:44N 38°25' W 009°40'0 0.5
2018-Jun-13 22:25N 38°25' W 009°40'0 0.5
2018-Jun-13 21:53N 38°24' W 009°40'8 4.2
2018-Jun-13 19:53N 38°32' W 009°45'2 6.3
2018-Jun-13 19:30N 38°34' W 009°44'1 2.6
2018-Jun-13 19:00N 38°32' W 009°44'1 1.1
2018-Jun-13 18:30N 38°32' W 009°44'0 0.3
2018-Jun-13 18:00N 38°32' W 009°44'0 0.6
2018-Jun-13 17:29N 38°32' W 009°45'0 0.9
2018-Jun-13 17:00N 38°31' W 009°45'1 1.0
2018-Jun-13 16:27N 38°31' W 009°46'1 1.1
2018-Jun-13 15:56N 38°31' W 009°46'1 1.1
2018-Jun-13 15:27N 38°30' W 009°46'1 1.0
2018-Jun-13 14:52N 38°30' W 009°47'1 0.5
2018-Jun-13 13:44N 38°29' W 009°47'0 0.5
2018-Jun-13 13:29N 38°29' W 009°47'0 1.0
2018-Jun-13 12:58N 38°29' W 009°46'6 7.2
2018-Jun-13 12:10N 38°27' W 009°39'1 7.3
2018-Jun-13 12:00N 38°27' W 009°37'4 7.3
2018-Jun-13 11:30N 38°27' W 009°33'4 7.9
2018-Jun-13 11:00N 38°26' W 009°28'4 8.1
2018-Jun-13 10:28N 38°25' W 009°22'4 8.9
2018-Jun-13 10:00N 38°25' W 009°17'5 8.7
2018-Jun-13 09:23N 38°25' W 009°10'3 9.1
2018-Jun-13 09:01N 38°26' W 009°06'0 0.6
2018-Jun-13 08:30N 38°26' W 009°07'0 0.0
2018-Jun-12 07:13N 38°26' W 009°07'0 0.0
2018-Jun-12 07:00N 38°26' W 009°07'0 0.3
2018-Jun-12 06:30N 38°26' W 009°06'5 8.8
2018-Jun-12 05:57N 38°24' W 009°12'4 9.2
2018-Jun-12 05:30N 38°24' W 009°18'5 9.4
2018-Jun-12 04:58N 38°25' W 009°24'4 9.3
2018-Jun-12 04:30N 38°25' W 009°29'7 4.4
2018-Jun-12 02:48N 38°27' W 009°38'1 2.7
2018-Jun-12 02:22N 38°26' W 009°38'0 0.7
2018-Jun-12 01:58N 38°26' W 009°38'0 0.5
2018-Jun-12 01:29N 38°26' W 009°38'0 0.8
2018-Jun-12 01:00N 38°26' W 009°38'0 0.9
2018-Jun-12 00:29N 38°26' W 009°39'0 0.9
2018-Jun-11 23:59N 38°26' W 009°39'0 0.9
2018-Jun-11 23:30N 38°25' W 009°40'1 0.4
2018-Jun-11 22:19N 38°25' W 009°40'0 0.4
2018-Jun-11 21:59N 38°25' W 009°39'8 3.9
2018-Jun-11 19:57N 38°31' W 009°46'3 5.8
2018-Jun-11 19:25N 38°34' W 009°44'2 3.9
2018-Jun-11 18:59N 38°32' W 009°44'0 0.2
2018-Jun-11 18:30N 38°32' W 009°44'0 0.5
2018-Jun-11 17:59N 38°32' W 009°44'0 0.8
2018-Jun-11 17:30N 38°32' W 009°44'0 1.0
2018-Jun-11 17:00N 38°31' W 009°45'1 1.1
2018-Jun-11 16:26N 38°31' W 009°45'0 1.1
2018-Jun-11 16:00N 38°30' W 009°45'1 1.1
2018-Jun-11 15:26N 38°30' W 009°46'0 1.0
2018-Jun-11 15:00N 38°30' W 009°46'0 0.6
2018-Jun-11 14:24N 38°29' W 009°46'0 0.2
2018-Jun-11 13:56N 38°29' W 009°46'0 0.6
2018-Jun-11 13:27N 38°29' W 009°46'4 7.7
2018-Jun-11 12:58N 38°27' W 009°42'4 8.6
2018-Jun-11 12:29N 38°27' W 009°36'4 8.5
2018-Jun-11 12:00N 38°26' W 009°31'5 8.7
2018-Jun-11 11:28N 38°26' W 009°25'4 8.7
2018-Jun-11 11:00N 38°25' W 009°20'5 8.8
2018-Jun-11 10:29N 38°24' W 009°14'5 8.8
2018-Jun-11 09:56N 38°25' W 009°08'2 4.0
2018-Jun-11 09:30N 38°26' W 009°07'0 0.0
2018-Jun-11 09:00N 38°26' W 009°07'  

Dump ship's entire track history